D/T METAR WX W/DIR W/SPE G/SPE TEMP DEWP
23/05/19 13:50 EGPE 231250Z AUTO 26019KT 9999 -RA FEW032/// BKN048/// 11/07 Q1011 -RA W (260°) 21.9mph 11°C 7°C
23/05/19 13:20 EGPE 231220Z AUTO 26019KT 9999 SCT029/// 12/07 Q1011 W (260°) 21.9mph 12°C 7°C
23/05/19 12:50 EGPE 231150Z AUTO 26022KT 9999 NCD 12/08 Q1010 W (260°) 25.3mph 12°C 8°C
23/05/19 12:20 EGPE 231120Z AUTO 26017KT 9999 NCD 12/08 Q1010 W (260°) 19.6mph 12°C 8°C
23/05/19 11:50 EGPE 231050Z AUTO 25016KT 9999 NCD 10/07 Q1011 WSW (250°) 18.4mph 10°C 7°C
23/05/19 11:20 EGPE 231020Z AUTO 26019KT 9999 FEW022/// SCT028/// BKN032/// 10/07 Q1011 W (260°) 21.9mph 10°C 7°C
23/05/19 10:50 EGPE 230950Z AUTO 26018KT 9999 BKN023/// 11/07 Q1011 W (260°) 20.7mph 11°C 7°C
23/05/19 10:20 EGPE 230920Z AUTO 25019KT 9999 BKN022/// 10/07 Q1011 WSW (250°) 21.9mph 10°C 7°C
23/05/19 09:50 EGPE 230850Z AUTO 26017KT 9999 BKN018/// OVC024/// 10/08 Q1011 W (260°) 19.6mph 10°C 8°C
23/05/19 09:20 EGPE 230820Z AUTO 25014KT 9999 BKN018/// OVC029/// 10/08 Q1011 WSW (250°) 16.1mph 10°C 8°C
23/05/19 08:50 EGPE 230750Z 26017KT 9999 VCSH BKN015 OVC023 10/08 Q1011 VCSH W (260°) 19.6mph 10°C 8°C
23/05/19 08:20 EGPE 230720Z 26012KT 9999 VCSH FEW008 BKN015 OVC023 10/08 Q1011 VCSH W (260°) 13.8mph 10°C 8°C
23/05/19 07:50 EGPE 230650Z AUTO 25013KT 9999 BKN019/// OVC023/// 10/08 Q1011 WSW (250°) 15.0mph 10°C 8°C
23/05/19 07:20 EGPE 230620Z 24013KT 9999 -RA FEW012 BKN018 10/08 Q1011 -RA WSW (240°) 15.0mph 10°C 8°C
23/05/19 06:50 EGPE 230550Z 24011KT 9999 -RA FEW012 BKN018 10/08 Q1011 -RA WSW (240°) 12.7mph 10°C 8°C
23/05/19 06:20 EGPE 230520Z AUTO 24012KT 9999 FEW037/// 10/08 Q1011 WSW (240°) 13.8mph 10°C 8°C
23/05/19 05:50 EGPE 230450Z AUTO 24012KT 9999 -RA NCD 10/08 Q1011 -RA WSW (240°) 13.8mph 10°C 8°C
23/05/19 05:20 EGPE 230420Z AUTO 24013KT 9999 -RA FEW040/// 10/08 Q1011 -RA WSW (240°) 15.0mph 10°C 8°C
23/05/19 04:50 EGPE 230350Z AUTO 25013KT 9999 NCD 10/07 Q1011 WSW (250°) 15.0mph 10°C 7°C
23/05/19 04:20 EGPE 230320Z AUTO 24014KT 9999 -RA BKN020/// BKN048/// 10/07 Q1011 -RA WSW (240°) 16.1mph 10°C 7°C
23/05/19 03:50 EGPE 230250Z AUTO 24014KT 9999 BKN019/// 10/08 Q1011 WSW (240°) 16.1mph 10°C 8°C
23/05/19 03:20 EGPE 230220Z AUTO 24013KT 9999 BKN019/// 10/08 Q1012 WSW (240°) 15.0mph 10°C 8°C
23/05/19 02:50 EGPE 230150Z AUTO 24012KT 9999 BKN019/// 10/08 Q1012 WSW (240°) 13.8mph 10°C 8°C
23/05/19 02:20 EGPE 230120Z AUTO 24014KT 9999 SCT020/// 10/08 Q1012 WSW (240°) 16.1mph 10°C 8°C
23/05/19 01:50 EGPE 230050Z AUTO 24015KT 9999 -RA BKN018/// 10/08 Q1012 -RA WSW (240°) 17.3mph 10°C 8°C
23/05/19 01:20 EGPE 230020Z AUTO 24013KT 9999 -RA BKN018/// OVC038/// 10/08 Q1012 -RA WSW (240°) 15.0mph 10°C 8°C
23/05/19 00:50 EGPE 222350Z AUTO 23014KT 9999 BKN019/// OVC025/// 10/08 Q1012 SW (230°) 16.1mph 10°C 8°C
23/05/19 00:20 EGPE 222320Z AUTO 23012KT 9999 SCT020/// BKN026/// OVC047/// 10/08 Q1013 SW (230°) 13.8mph 10°C 8°C
22/05/19 23:50 EGPE 222250Z AUTO 24011KT 9999 OVC047/// 10/08 Q1013 WSW (240°) 12.7mph 10°C 8°C
22/05/19 23:20 EGPE 222220Z AUTO 24010KT 9999 FEW037/// OVC048/// 10/08 Q1013 WSW (240°) 11.5mph 10°C 8°C
22/05/19 22:50 EGPE 222150Z AUTO 24009KT 9999 BKN032/// BKN038/// 11/08 Q1013 WSW (240°) 10.4mph 11°C 8°C
22/05/19 22:20 EGPE 222120Z AUTO 24009KT 9999 BKN035/// 11/08 Q1013 WSW (240°) 10.4mph 11°C 8°C
22/05/19 21:50 EGPE 222050Z 24010KT 9999 VCSH FEW012 SCT026 BKN039 11/08 Q1013 VCSH WSW (240°) 11.5mph 11°C 8°C
22/05/19 21:20 EGPE 222020Z 24010KT 9999 VCSH FEW012 SCT032 BKN042 11/08 Q1013 VCSH WSW (240°) 11.5mph 11°C 8°C
22/05/19 20:50 EGPE 221950Z 23011KT 9999 VCSH FEW012 SCT032 BKN042 11/08 Q1013 VCSH SW (230°) 12.7mph 11°C 8°C
22/05/19 20:20 EGPE 221920Z 25013KT 9999 VCSH FEW012 SCT028 BKN038 11/08 Q1013 VCSH WSW (250°) 15.0mph 11°C 8°C
22/05/19 19:50 EGPE 221850Z 25011KT 9999 VCSH FEW012 SCT028 BKN038 11/08 Q1013 VCSH WSW (250°) 12.7mph 11°C 8°C
22/05/19 19:20 EGPE 221820Z 25011KT 9999 VCSH FEW012 SCT028 BKN035 11/08 Q1014 VCSH WSW (250°) 12.7mph 11°C 8°C
22/05/19 18:50 EGPE 221750Z 24010KT 9999 VCSH FEW016 SCT025 BKN035 11/08 Q1014 VCSH WSW (240°) 11.5mph 11°C 8°C
22/05/19 18:20 EGPE 221720Z 25011KT 9999 VCSH FEW016 SCT025 BKN032 11/09 Q1014 VCSH WSW (250°) 12.7mph 11°C 9°C
22/05/19 17:50 EGPE 221650Z 26012KT 9999 VCSH FEW018 SCT025 BKN035 12/08 Q1014 VCSH W (260°) 13.8mph 12°C 8°C
22/05/19 17:20 EGPE 221620Z 27011KT 9999 VCSH FEW017 SCT025 BKN031 12/08 Q1014 VCSH W (270°) 12.7mph 12°C 8°C
22/05/19 16:50 EGPE 221550Z 26012KT 9999 VCSH FEW021 SCT026 BKN041 12/09 Q1014 VCSH W (260°) 13.8mph 12°C 9°C
22/05/19 16:20 EGPE 221520Z 25012KT 9999 VCSH FEW021 SCT026 BKN041 12/09 Q1014 VCSH WSW (250°) 13.8mph 12°C 9°C
22/05/19 15:50 EGPE 221450Z 26013KT 9999 VCSH FEW016 SCT025 BKN041 12/09 Q1014 VCSH W (260°) 15.0mph 12°C 9°C
22/05/19 15:20 EGPE 221420Z 26015KT 9999 VCSH FEW016 SCT026 BKN048 13/09 Q1014 VCSH W (260°) 17.3mph 13°C 9°C
22/05/19 14:50 EGPE 221350Z 25014KT 9999 VCSH FEW016 SCT027 BKN044 13/09 Q1014 VCSH WSW (250°) 16.1mph 13°C 9°C
22/05/19 14:20 EGPE 221320Z 26014KT 9999 VCSH FEW016 SCT031 BKN044 12/09 Q1014 VCSH W (260°) 16.1mph 12°C 9°C